createdAt,value
2023-01-29T00:02:13.004Z,97021.84
2023-01-29T00:04:40.155Z,97022.78
2023-01-29T00:07:07.175Z,97013.34
2023-01-29T00:09:34.604Z,97025.19
2023-01-29T00:12:01.741Z,97022.63
2023-01-29T00:14:28.981Z,97019.00
2023-01-29T00:16:56.033Z,97016.31
2023-01-29T00:19:23.543Z,97018.81
2023-01-29T00:21:50.541Z,97021.97
2023-01-29T00:24:17.650Z,97017.78
2023-01-29T00:26:45.430Z,97031.00
2023-01-29T00:29:12.569Z,97020.66
2023-01-29T00:31:39.842Z,97021.44
2023-01-29T00:34:07.397Z,97026.44
2023-01-29T00:36:34.313Z,97020.56
2023-01-29T00:39:10.608Z,97023.16
2023-01-29T00:41:57.221Z,97026.38
2023-01-29T00:44:42.976Z,97016.97
2023-01-29T00:47:29.078Z,97033.13
2023-01-29T00:49:56.761Z,97024.50
2023-01-29T00:52:24.206Z,97033.59
2023-01-29T00:54:54.153Z,97031.16
2023-01-29T00:57:21.741Z,97030.53
2023-01-29T00:59:48.808Z,97024.50
2023-01-29T01:02:34.707Z,97032.19
2023-01-29T01:05:06.144Z,97033.38
2023-01-29T01:07:33.899Z,97040.66
2023-01-29T01:10:19.390Z,97040.47
2023-01-29T01:12:46.567Z,97042.94
2023-01-29T01:15:14.005Z,97027.47
2023-01-29T01:17:41.143Z,97035.22
2023-01-29T01:20:09.603Z,97032.69
2023-01-29T01:22:37.229Z,97030.94
2023-01-29T01:25:05.201Z,97027.44
2023-01-29T01:27:32.446Z,97042.75
2023-01-29T01:29:59.502Z,97046.47
2023-01-29T01:32:26.550Z,97053.97
2023-01-29T01:34:53.997Z,97053.94
2023-01-29T01:37:21.163Z,97050.81
2023-01-29T01:39:49.114Z,97045.50
2023-01-29T01:42:16.406Z,97053.63
2023-01-29T01:45:04.748Z,97050.25
2023-01-29T01:47:35.669Z,97046.09
2023-01-29T01:50:31.703Z,97059.09
2023-01-29T01:53:07.524Z,97044.94
2023-01-29T01:55:37.091Z,97054.13
2023-01-29T01:58:10.875Z,97055.03
2023-01-29T02:00:39.806Z,97064.94
2023-01-29T02:03:27.295Z,97056.53
2023-01-29T02:06:16.208Z,97067.34
2023-01-29T02:09:19.403Z,97065.69
2023-01-29T02:11:46.517Z,97062.47
2023-01-29T02:14:14.405Z,97065.69
2023-01-29T02:16:41.325Z,97067.34
2023-01-29T02:19:20.539Z,97060.56
2023-01-29T02:22:02.639Z,97070.06
2023-01-29T02:24:52.293Z,97061.56
2023-01-29T02:27:30.708Z,97068.59
2023-01-29T02:30:15.145Z,97066.78
2023-01-29T02:33:02.327Z,97073.31
2023-01-29T02:35:37.464Z,97060.47
2023-01-29T02:38:35.296Z,97072.22
2023-01-29T02:41:09.409Z,97073.06
2023-01-29T02:43:54.833Z,97074.72
2023-01-29T02:46:37.194Z,97064.34
2023-01-29T02:49:35.249Z,97067.03
2023-01-29T02:52:33.967Z,97074.59
2023-01-29T02:55:23.704Z,97063.63
2023-01-29T02:57:56.309Z,97074.19
2023-01-29T03:00:45.948Z,97069.63
2023-01-29T03:03:13.144Z,97072.03
2023-01-29T03:06:06.544Z,97078.91
2023-01-29T03:08:45.730Z,97072.97
2023-01-29T03:11:16.414Z,97076.25
2023-01-29T03:13:52.891Z,97061.19
2023-01-29T03:16:31.231Z,97080.94
2023-01-29T03:19:13.679Z,97080.06
2023-01-29T03:21:51.255Z,97060.75
2023-01-29T03:24:43.235Z,97082.03
2023-01-29T03:27:32.440Z,97087.03
2023-01-29T03:30:20.132Z,97082.94
2023-01-29T03:33:21.391Z,97093.06
2023-01-29T03:35:56.801Z,97098.13
2023-01-29T03:38:31.845Z,97093.03
2023-01-29T03:41:14.463Z,97094.72
2023-01-29T03:44:20.948Z,97095.41
2023-01-29T03:46:59.364Z,97096.38
2023-01-29T03:49:53.681Z,97107.34
2023-01-29T03:52:31.647Z,97100.75
2023-01-29T03:55:10.896Z,97105.06
2023-01-29T03:57:57.986Z,97113.63
2023-01-29T04:00:34.467Z,97106.94
2023-01-29T04:03:29.892Z,97107.06
2023-01-29T04:06:11.821Z,97112.16
2023-01-29T04:09:04.431Z,97117.41
2023-01-29T04:11:37.352Z,97112.09
2023-01-29T04:14:05.070Z,97111.59
2023-01-29T04:16:37.524Z,97119.91
2023-01-29T04:19:21.149Z,97115.63
2023-01-29T04:21:53.322Z,97105.50
2023-01-29T04:24:20.780Z,97120.06
2023-01-29T04:27:06.697Z,97127.72
2023-01-29T04:29:38.657Z,97107.41
2023-01-29T04:32:31.711Z,97121.84
2023-01-29T04:35:06.617Z,97131.34
2023-01-29T04:37:35.887Z,97135.38
2023-01-29T04:40:15.137Z,97140.66
2023-01-29T04:42:55.857Z,97127.00
2023-01-29T04:45:50.669Z,97138.13
2023-01-29T04:48:30.566Z,97143.25
2023-01-29T04:51:25.440Z,97146.53
2023-01-29T04:54:17.515Z,97146.53
2023-01-29T04:56:47.457Z,97142.38
2023-01-29T04:59:21.346Z,97150.69
2023-01-29T05:01:49.355Z,97146.41
2023-01-29T05:04:21.021Z,97106.97
2023-01-29T05:06:48.926Z,97144.13
2023-01-29T05:09:17.955Z,97150.88
2023-01-29T05:11:47.669Z,97146.69
2023-01-29T05:14:18.725Z,97162.88
2023-01-29T05:16:50.811Z,97171.44
2023-01-29T05:19:18.270Z,97170.91
2023-01-29T05:21:48.578Z,97183.66
2023-01-29T05:24:26.116Z,97183.53
2023-01-29T05:27:13.242Z,97179.44
2023-01-29T05:29:46.722Z,97179.31
2023-01-29T05:32:15.418Z,97191.28
2023-01-29T05:34:43.101Z,97179.44
2023-01-29T05:37:10.626Z,97195.44
2023-01-29T05:39:37.682Z,97194.75
2023-01-29T05:42:04.819Z,97195.53
2023-01-29T05:44:31.997Z,97197.16
2023-01-29T05:46:59.124Z,97208.28
2023-01-29T05:49:26.326Z,97209.78
2023-01-29T05:51:53.253Z,97208.16
2023-01-29T05:54:20.267Z,97218.38
2023-01-29T05:56:47.498Z,97213.25
2023-01-29T05:59:15.756Z,97216.66
2023-01-29T06:01:42.674Z,97220.09
2023-01-29T06:04:09.722Z,97223.34
2023-01-29T06:06:36.915Z,97232.78
2023-01-29T06:09:04.052Z,97220.03
2023-01-29T06:11:30.998Z,97233.84
2023-01-29T06:13:58.206Z,97235.72
2023-01-29T06:16:25.181Z,97236.84
2023-01-29T06:18:52.262Z,97235.09
2023-01-29T06:21:20.179Z,97238.41
2023-01-29T06:23:47.511Z,97245.84
2023-01-29T06:26:15.972Z,97238.81
2023-01-29T06:28:45.376Z,97241.31
2023-01-29T06:31:30.443Z,97247.38
2023-01-29T06:33:59.470Z,97217.66
2023-01-29T06:36:26.620Z,97248.13
2023-01-29T06:38:54.277Z,97248.91
2023-01-29T06:41:25.840Z,97258.94
2023-01-29T06:43:53.644Z,97260.69
2023-01-29T06:46:21.234Z,97256.47
2023-01-29T06:48:49.797Z,97268.25
2023-01-29T06:51:17.454Z,97271.78
2023-01-29T06:53:46.425Z,97265.00
2023-01-29T06:56:17.628Z,97245.66
2023-01-29T06:58:44.720Z,97265.13
2023-01-29T07:01:25.435Z,97268.34
2023-01-29T07:04:00.338Z,97279.38
2023-01-29T07:06:29.144Z,97280.09
2023-01-29T07:08:56.211Z,97271.84
2023-01-29T07:11:23.239Z,97276.84
2023-01-29T07:13:50.373Z,97281.81
2023-01-29T07:16:19.386Z,97275.78
2023-01-29T07:18:47.801Z,97272.63
2023-01-29T07:21:15.060Z,97266.63
2023-01-29T07:23:42.131Z,97280.75
2023-01-29T07:26:11.417Z,97278.94
2023-01-29T07:28:39.459Z,97287.47
2023-01-29T07:31:07.588Z,97293.56
2023-01-29T07:33:35.028Z,97291.19
2023-01-29T07:36:02.048Z,97279.16
2023-01-29T07:38:29.259Z,97294.25
2023-01-29T07:40:56.394Z,97296.72
2023-01-29T07:43:25.151Z,97278.66
2023-01-29T07:45:52.521Z,97290.03
2023-01-29T07:48:20.541Z,97301.94
2023-01-29T07:50:55.532Z,97285.75
2023-01-29T07:53:22.778Z,97309.38
2023-01-29T07:55:49.869Z,97308.53
2023-01-29T07:58:17.210Z,97305.25
2023-01-29T08:00:44.411Z,97318.81
2023-01-29T08:03:18.173Z,97316.22
2023-01-29T08:05:45.803Z,97315.72
2023-01-29T08:08:13.471Z,97319.84
2023-01-29T08:10:41.094Z,97305.09
2023-01-29T08:13:08.408Z,97319.56
2023-01-29T08:18:22.816Z,97312.66
2023-01-29T08:20:52.758Z,97319.75
2023-01-29T08:23:20.142Z,97309.84
2023-01-29T08:25:47.436Z,97318.13
2023-01-29T08:28:14.374Z,97319.69
2023-01-29T08:30:41.875Z,97319.44
2023-01-29T08:33:09.042Z,97324.56
2023-01-29T08:35:36.798Z,97324.47
2023-01-29T08:38:05.265Z,97329.44
2023-01-29T08:40:35.146Z,97326.13
2023-01-29T08:43:06.196Z,97317.59
2023-01-29T08:45:37.791Z,97329.34
2023-01-29T08:48:05.595Z,97322.34
2023-01-29T08:50:35.074Z,97323.84
2023-01-29T08:53:08.112Z,97333.03
2023-01-29T08:55:40.281Z,97332.94
2023-01-29T08:58:11.150Z,97336.41
2023-01-29T09:00:38.719Z,97328.81
2023-01-29T09:03:08.365Z,97323.63
2023-01-29T09:05:36.781Z,97328.84
2023-01-29T09:08:04.291Z,97338.81
2023-01-29T09:10:31.239Z,97336.13
2023-01-29T09:12:58.342Z,97322.44
2023-01-29T09:15:25.757Z,97330.06
2023-01-29T09:17:53.562Z,97293.72
2023-01-29T09:20:21.034Z,97338.44
2023-01-29T09:22:49.585Z,97335.91
2023-01-29T09:25:16.954Z,97329.84
2023-01-29T09:27:44.201Z,97340.16
2023-01-29T09:30:12.055Z,97325.72
2023-01-29T09:32:55.000Z,97324.06
2023-01-29T09:35:24.254Z,97324.56
2023-01-29T09:37:52.362Z,97323.59
2023-01-29T09:40:38.671Z,97321.00
2023-01-29T09:43:41.305Z,97307.56
2023-01-29T09:46:23.748Z,97313.97
2023-01-29T09:49:01.853Z,97303.50
2023-01-29T09:51:34.903Z,97299.56
2023-01-29T09:54:25.157Z,97312.75
2023-01-29T09:56:57.108Z,97295.25
2023-01-29T09:59:27.971Z,97285.28
2023-01-29T10:02:11.741Z,97308.44
2023-01-29T10:04:51.662Z,97302.28
2023-01-29T10:07:50.211Z,97294.97
2023-01-29T10:10:29.915Z,97292.75
2023-01-29T10:13:19.401Z,97287.28
2023-01-29T10:15:52.549Z,97292.88
2023-01-29T10:18:43.791Z,97289.41
2023-01-29T10:21:17.030Z,97282.88
2023-01-29T10:23:50.330Z,97270.59
2023-01-29T10:26:27.790Z,97273.38
2023-01-29T10:28:58.612Z,97274.00
2023-01-29T10:31:36.642Z,97279.16
2023-01-29T10:34:19.509Z,97269.03
2023-01-29T10:36:49.643Z,97264.69
2023-01-29T10:39:24.602Z,97266.53
2023-01-29T10:42:01.177Z,97265.59
2023-01-29T10:44:56.376Z,97259.66
2023-01-29T10:47:52.987Z,97255.69
2023-01-29T10:50:26.545Z,97258.63
2023-01-29T10:53:34.806Z,97251.25
2023-01-29T10:56:14.168Z,97247.78
2023-01-29T10:59:18.700Z,97249.31
2023-01-29T11:01:46.203Z,97249.09
2023-01-29T11:04:14.646Z,97239.28
2023-01-29T11:06:42.168Z,97229.38
2023-01-29T11:09:20.104Z,97231.03
2023-01-29T11:12:22.617Z,97233.31
2023-01-29T11:14:53.645Z,97232.19
2023-01-29T11:17:23.541Z,97224.44
2023-01-29T11:19:52.935Z,97241.06
2023-01-29T11:22:28.150Z,97240.25
2023-01-29T11:25:32.840Z,97229.44
2023-01-29T11:28:02.224Z,97232.94
2023-01-29T11:30:38.555Z,97213.88
2023-01-29T11:33:05.927Z,97224.09
2023-01-29T11:35:33.594Z,97215.53
2023-01-29T11:38:27.839Z,97225.50
2023-01-29T11:41:07.188Z,97226.19
2023-01-29T11:43:34.294Z,97211.75
2023-01-29T11:46:07.585Z,97207.38
2023-01-29T11:48:45.846Z,97213.81
2023-01-29T11:51:23.340Z,97223.94
2023-01-29T11:53:55.399Z,97215.16
2023-01-29T11:56:39.687Z,97213.00
2023-01-29T11:59:13.991Z,97219.72
2023-01-29T12:01:41.717Z,97213.00
2023-01-29T12:04:20.595Z,97210.16
2023-01-29T12:06:52.103Z,97202.28
2023-01-29T12:09:27.741Z,97203.94
2023-01-29T12:11:55.062Z,97201.94
2023-01-29T12:14:36.250Z,97199.94
2023-01-29T12:17:06.089Z,97210.59
2023-01-29T12:19:45.343Z,97203.66
2023-01-29T12:22:33.762Z,97211.91
2023-01-29T12:25:23.476Z,97215.00
2023-01-29T12:28:00.037Z,97204.97
2023-01-29T12:30:45.028Z,97201.34
2023-01-29T12:33:21.155Z,97212.69
2023-01-29T12:35:54.696Z,97217.16
2023-01-29T12:38:24.203Z,97197.69
2023-01-29T12:41:06.205Z,97208.00
2023-01-29T12:43:40.292Z,97207.22
2023-01-29T12:46:13.495Z,97202.38
2023-01-29T12:48:48.609Z,97200.00
2023-01-29T12:51:23.462Z,97209.50
2023-01-29T12:54:00.047Z,97194.84
2023-01-29T12:56:37.371Z,97205.72
2023-01-29T12:59:30.975Z,97213.06
2023-01-29T13:02:11.550Z,97218.22
2023-01-29T13:04:45.843Z,97203.03
2023-01-29T13:07:24.665Z,97223.53
2023-01-29T13:09:57.149Z,97208.34
2023-01-29T13:12:24.793Z,97222.00
2023-01-29T13:14:59.279Z,97209.94
2023-01-29T13:17:42.957Z,97219.47
2023-01-29T13:20:34.672Z,97214.22
2023-01-29T13:23:25.656Z,97207.34
2023-01-29T13:25:53.968Z,97190.47
2023-01-29T13:28:24.641Z,97225.28
2023-01-29T13:31:15.148Z,97210.88
2023-01-29T13:33:51.934Z,97227.94
2023-01-29T13:36:26.366Z,97211.78
2023-01-29T13:39:05.642Z,97220.16
2023-01-29T13:41:41.900Z,97203.94
2023-01-29T13:44:23.676Z,97219.22
2023-01-29T13:47:02.443Z,97208.84
2023-01-29T13:49:35.564Z,97221.66
2023-01-29T13:52:43.607Z,97220.03
2023-01-29T13:55:13.807Z,97236.88
2023-01-29T13:57:43.864Z,97232.59
2023-01-29T14:00:22.703Z,97231.66
2023-01-29T14:02:55.659Z,97235.88
2023-01-29T14:11:19.444Z,97225.06
2023-01-29T14:13:50.075Z,97219.63
2023-01-29T14:16:17.100Z,97222.84
2023-01-29T14:19:18.854Z,97226.13
2023-01-29T14:21:51.283Z,97215.28
2023-01-29T14:24:31.779Z,97223.06
2023-01-29T14:27:02.124Z,97218.06
2023-01-29T14:29:41.950Z,97218.97
2023-01-29T14:32:19.834Z,97229.38
2023-01-29T14:35:31.135Z,97227.59
2023-01-29T14:38:10.043Z,97237.16
2023-01-29T14:40:37.482Z,97226.78
2023-01-29T14:43:20.246Z,97234.59
2023-01-29T14:45:51.108Z,97223.53
2023-01-29T14:48:46.765Z,97229.56
2023-01-29T14:51:16.875Z,97227.19
2023-01-29T14:53:57.174Z,97228.75
2023-01-29T14:56:41.782Z,97233.34
2023-01-29T14:59:20.873Z,97239.25
2023-01-29T15:01:55.318Z,97236.81
2023-01-29T15:04:55.376Z,97241.09
2023-01-29T15:08:06.978Z,97241.16
2023-01-29T15:10:43.388Z,97242.81
2023-01-29T15:13:23.491Z,97234.38
2023-01-29T15:15:56.675Z,97236.03
2023-01-29T15:18:34.861Z,97238.50
2023-01-29T15:21:05.820Z,97235.06
2023-01-29T15:23:34.591Z,97257.31
2023-01-29T15:26:04.514Z,97238.56
2023-01-29T15:28:34.441Z,97247.09
2023-01-29T15:31:05.955Z,97244.53
2023-01-29T15:33:35.724Z,97255.72
2023-01-29T15:36:08.737Z,97254.69
2023-01-29T15:38:36.222Z,97259.72
2023-01-29T15:41:16.647Z,97257.19
2023-01-29T15:43:46.443Z,97246.91
2023-01-29T15:46:28.660Z,97247.78
2023-01-29T15:48:58.001Z,97242.91
2023-01-29T15:51:27.867Z,97254.72
2023-01-29T15:54:01.541Z,97262.47
2023-01-29T15:56:31.435Z,97264.16
2023-01-29T15:59:02.847Z,97259.22
2023-01-29T16:01:32.219Z,97280.38
2023-01-29T16:04:02.560Z,97288.16
2023-01-29T16:06:39.986Z,97281.38
2023-01-29T16:09:09.900Z,97276.31
2023-01-29T16:11:38.090Z,97275.50
2023-01-29T16:14:06.549Z,97286.66
2023-01-29T16:16:33.730Z,97288.47
2023-01-29T16:19:01.561Z,97289.38
2023-01-29T16:21:40.301Z,97284.28
2023-01-29T16:24:22.258Z,97280.88
2023-01-29T16:26:51.478Z,97281.75
2023-01-29T16:29:28.708Z,97285.94
2023-01-29T16:32:02.012Z,97286.91
2023-01-29T16:34:36.430Z,97273.28
2023-01-29T16:37:19.404Z,97282.72
2023-01-29T16:39:49.383Z,97286.03
2023-01-29T16:42:25.343Z,97274.06
2023-01-29T16:45:00.448Z,97282.53
2023-01-29T16:47:36.922Z,97269.84
2023-01-29T16:50:36.107Z,97288.50
2023-01-29T16:53:25.015Z,97283.47
2023-01-29T16:55:53.004Z,97276.66
2023-01-29T16:58:24.681Z,97285.84
2023-01-29T17:01:12.326Z,97274.81
2023-01-29T17:03:40.790Z,97278.13
2023-01-29T17:06:21.432Z,97291.88
2023-01-29T17:08:48.942Z,97273.97
2023-01-29T17:11:27.300Z,97281.56
2023-01-29T17:13:57.399Z,97283.19
2023-01-29T17:16:31.520Z,97279.63
2023-01-29T17:18:59.688Z,97277.09
2023-01-29T17:21:27.205Z,97266.03
2023-01-29T17:23:54.425Z,97279.53
2023-01-29T17:26:22.219Z,97271.03
2023-01-29T17:28:51.622Z,97276.88
2023-01-29T17:31:18.929Z,97277.78
2023-01-29T17:33:45.964Z,97282.84
2023-01-29T17:36:15.984Z,97281.06
2023-01-29T17:38:43.498Z,97291.34
2023-01-29T17:41:21.602Z,97292.88
2023-01-29T17:43:48.775Z,97289.50
2023-01-29T17:46:17.194Z,97265.59
2023-01-29T17:48:45.066Z,97290.22
2023-01-29T17:51:14.967Z,97292.66
2023-01-29T17:53:45.993Z,97283.22
2023-01-29T17:56:21.392Z,97259.50
2023-01-29T17:58:48.632Z,97278.75
2023-01-29T18:01:16.606Z,97273.69
2023-01-29T18:03:43.803Z,97281.41
2023-01-29T18:06:18.723Z,97270.28
2023-01-29T18:08:45.988Z,97278.66
2023-01-29T18:11:13.434Z,97283.75
2023-01-29T18:13:42.424Z,97286.19
2023-01-29T18:16:09.937Z,97275.03
2023-01-29T18:18:37.097Z,97280.34
2023-01-29T18:21:04.285Z,97274.53
2023-01-29T18:23:32.090Z,97264.16
2023-01-29T18:25:59.215Z,97267.47
2023-01-29T18:28:26.288Z,97273.53
2023-01-29T18:30:53.692Z,97271.84
2023-01-29T18:33:20.907Z,97259.75
2023-01-29T18:35:48.737Z,97281.84
2023-01-29T18:38:17.241Z,97277.53
2023-01-29T18:40:44.326Z,97276.69
2023-01-29T18:43:11.323Z,97290.38
2023-01-29T18:45:38.340Z,97282.75
2023-01-29T18:48:05.858Z,97293.84
2023-01-29T18:50:34.030Z,97284.47
2023-01-29T18:53:01.511Z,97271.97
2023-01-29T18:55:28.874Z,97285.81
2023-01-29T18:58:27.447Z,97293.75
2023-01-29T19:00:44.914Z,97299.69
2023-01-29T19:03:12.296Z,97287.81
2023-01-29T19:05:39.697Z,97302.25
2023-01-29T19:08:06.776Z,97293.81
2023-01-29T19:10:34.255Z,97302.19
2023-01-29T19:13:01.849Z,97302.09
2023-01-29T19:15:29.176Z,97304.75
2023-01-29T19:17:56.878Z,97300.41
2023-01-29T19:20:23.860Z,97293.06
2023-01-29T19:22:51.458Z,97292.19
2023-01-29T19:25:20.170Z,97294.00
2023-01-29T19:27:48.007Z,97300.81
2023-01-29T19:30:16.009Z,97294.97
2023-01-29T19:32:45.623Z,97279.00
2023-01-29T19:35:13.067Z,97296.72
2023-01-29T19:37:40.141Z,97295.84
2023-01-29T19:40:08.931Z,97295.88
2023-01-29T19:42:37.605Z,97301.81
2023-01-29T19:45:05.981Z,97288.25
2023-01-29T19:47:38.079Z,97303.59
2023-01-29T19:50:05.554Z,97288.19
2023-01-29T19:52:50.374Z,97311.69
2023-01-29T19:55:20.345Z,97290.28
2023-01-29T19:57:47.654Z,97305.47
2023-01-29T20:00:18.036Z,97305.50
2023-01-29T20:02:47.082Z,97297.75
2023-01-29T20:05:17.508Z,97305.50
2023-01-29T20:07:45.098Z,97287.63
2023-01-29T20:10:17.988Z,97296.78
2023-01-29T20:12:46.603Z,97298.44
2023-01-29T20:15:17.225Z,97292.06
2023-01-29T20:17:45.777Z,97296.41
2023-01-29T20:20:13.201Z,97296.69
2023-01-29T20:22:40.383Z,97298.41
2023-01-29T20:25:07.563Z,97238.41
2023-01-29T20:27:34.664Z,97303.31
2023-01-29T20:30:01.587Z,97299.22
2023-01-29T20:32:32.955Z,97305.97
2023-01-29T20:35:00.160Z,97295.03
2023-01-29T20:37:27.459Z,97300.19
2023-01-29T20:39:54.791Z,97305.66
2023-01-29T20:42:21.764Z,97309.34
2023-01-29T20:44:48.771Z,97295.69
2023-01-29T20:47:15.759Z,97305.94
2023-01-29T20:49:43.208Z,97299.13
2023-01-29T20:52:11.307Z,97303.50
2023-01-29T20:54:38.438Z,97314.69
2023-01-29T20:57:05.396Z,97307.06
2023-01-29T20:59:32.542Z,97313.00
2023-01-29T21:01:59.509Z,97308.94
2023-01-29T21:04:27.436Z,97305.47
2023-01-29T21:06:54.438Z,97323.22
2023-01-29T21:09:21.449Z,97307.94
2023-01-29T21:11:48.628Z,97322.28
2023-01-29T21:14:15.634Z,97319.06
2023-01-29T21:16:42.775Z,97326.88
2023-01-29T21:19:13.045Z,97328.47
2023-01-29T21:21:40.264Z,97332.91
2023-01-29T21:24:09.390Z,97333.69
2023-01-29T21:26:38.636Z,97327.66
2023-01-29T21:29:05.815Z,97326.84
2023-01-29T21:31:33.776Z,97331.81
2023-01-29T21:34:00.756Z,97323.22
2023-01-29T21:36:30.855Z,97325.00
2023-01-29T21:38:58.216Z,97317.34
2023-01-29T21:41:44.621Z,97322.69
2023-01-29T21:44:12.605Z,97326.13
2023-01-29T21:46:39.602Z,97326.94
2023-01-29T21:49:06.863Z,97315.97
2023-01-29T21:51:33.763Z,97323.66
2023-01-29T21:54:00.684Z,97317.63
2023-01-29T21:56:27.760Z,97309.19
2023-01-29T21:58:55.052Z,97297.34
2023-01-29T22:01:36.451Z,97312.66
2023-01-29T22:04:07.793Z,97304.16
2023-01-29T22:06:35.109Z,97313.59
2023-01-29T22:09:02.156Z,97305.91
2023-01-29T22:11:29.143Z,97300.81
2023-01-29T22:13:56.109Z,97299.94
2023-01-29T22:16:23.064Z,97298.94
2023-01-29T22:18:50.279Z,97301.47
2023-01-29T22:21:17.209Z,97302.50
2023-01-29T22:23:49.209Z,97295.59
2023-01-29T22:26:16.684Z,97298.13
2023-01-29T22:28:43.737Z,97298.94
2023-01-29T22:31:13.523Z,97298.09
2023-01-29T22:33:40.498Z,97293.88
2023-01-29T22:36:08.064Z,97288.72
2023-01-29T22:38:35.210Z,97294.75
2023-01-29T22:41:02.602Z,97281.94
2023-01-29T22:43:29.849Z,97282.63
2023-01-29T22:45:57.114Z,97286.78
2023-01-29T22:48:24.253Z,97280.03
2023-01-29T22:51:10.981Z,97278.25
2023-01-29T22:53:44.288Z,97288.38
2023-01-29T22:56:12.091Z,97282.34
2023-01-29T22:58:39.198Z,97276.38
2023-01-29T23:01:06.204Z,97280.56
2023-01-29T23:03:33.727Z,97265.34
2023-01-29T23:06:01.455Z,97266.88
2023-01-29T23:08:28.564Z,97268.56
2023-01-29T23:10:55.553Z,97271.88
2023-01-29T23:13:22.510Z,97277.16
2023-01-29T23:15:59.192Z,97284.84
2023-01-29T23:18:26.308Z,97280.06
2023-01-29T23:20:57.670Z,97272.06
2023-01-29T23:23:24.901Z,97272.88
2023-01-29T23:26:16.895Z,97268.63
2023-01-29T23:28:44.373Z,97264.22
2023-01-29T23:31:12.303Z,97262.59
2023-01-29T23:33:39.432Z,97253.25
2023-01-29T23:36:07.900Z,97265.16
2023-01-29T23:38:34.967Z,97260.91
2023-01-29T23:41:02.023Z,97252.34
2023-01-29T23:43:30.524Z,97258.31
2023-01-29T23:45:57.823Z,97248.06
2023-01-29T23:48:24.908Z,97251.59
2023-01-29T23:50:52.052Z,97253.34
2023-01-29T23:53:19.186Z,97249.16
2023-01-29T23:55:59.719Z,97227.78
2023-01-29T23:58:28.002Z,97243.91
